sensor_id;sensor_type;location;lat;lon;timestamp;pressure;altitude;pressure_sealevel;temperature;humidity
63691;BME280;49837;57.280;27.070;2023-02-13T00:00:58;100697.42;;;0.53;100.0
63691;BME280;49837;57.280;27.070;2023-02-13T00:01:58;100696.36;;;0.53;100.0
63691;BME280;49837;57.280;27.070;2023-02-13T00:02:58;100704.35;;;0.56;100.0
63691;BME280;49837;57.280;27.070;2023-02-13T00:03:59;100698.67;;;0.59;100.0
63691;BME280;49837;57.280;27.070;2023-02-13T00:04:59;100687.41;;;0.62;100.0
63691;BME280;49837;57.280;27.070;2023-02-13T00:06:00;100682.62;;;0.61;100.0
63691;BME280;49837;57.280;27.070;2023-02-13T00:07:00;100684.67;;;0.57;100.0
63691;BME280;49837;57.280;27.070;2023-02-13T00:08:00;100680.19;;;0.54;100.0
63691;BME280;49837;57.280;27.070;2023-02-13T00:09:01;100677.59;;;0.56;100.0
63691;BME280;49837;57.280;27.070;2023-02-13T00:10:01;100677.59;;;0.56;100.0
63691;BME280;49837;57.280;27.070;2023-02-13T00:11:01;100679.12;;;0.58;100.0
63691;BME280;49837;57.280;27.070;2023-02-13T00:12:02;100684.08;;;0.6;100.0
63691;BME280;49837;57.280;27.070;2023-02-13T00:13:02;100681.91;;;0.58;100.0
63691;BME280;49837;57.280;27.070;2023-02-13T00:14:02;100677.92;;;0.59;100.0
63691;BME280;49837;57.280;27.070;2023-02-13T00:15:03;100679.2;;;0.53;100.0
63691;BME280;49837;57.280;27.070;2023-02-13T00:16:04;100682.41;;;0.53;100.0
63691;BME280;49837;57.280;27.070;2023-02-13T00:17:04;100681.29;;;0.56;100.0
63691;BME280;49837;57.280;27.070;2023-02-13T00:18:04;100681.47;;;0.57;100.0
63691;BME280;49837;57.280;27.070;2023-02-13T00:19:04;100681.73;;;0.58;100.0
63691;BME280;49837;57.280;27.070;2023-02-13T00:20:05;100677.7;;;0.57;100.0
63691;BME280;49837;57.280;27.070;2023-02-13T00:21:07;100683.09;;;0.55;100.0
63691;BME280;49837;57.280;27.070;2023-02-13T00:22:05;100687.02;;;0.59;100.0
63691;BME280;49837;57.280;27.070;2023-02-13T00:23:05;100684.41;;;0.6;100.0
63691;BME280;49837;57.280;27.070;2023-02-13T00:24:06;100685.19;;;0.58;100.0
63691;BME280;49837;57.280;27.070;2023-02-13T00:25:07;100681.8;;;0.61;100.0
63691;BME280;49837;57.280;27.070;2023-02-13T00:26:11;100682.75;;;0.55;100.0
63691;BME280;49837;57.280;27.070;2023-02-13T00:27:09;100676.95;;;0.57;100.0
63691;BME280;49837;57.280;27.070;2023-02-13T00:28:09;100675.45;;;0.54;100.0
63691;BME280;49837;57.280;27.070;2023-02-13T00:29:10;100671.51;;;0.54;100.0
63691;BME280;49837;57.280;27.070;2023-02-13T00:30:11;100675.75;;;0.53;100.0
63691;BME280;49837;57.280;27.070;2023-02-13T00:31:16;100668.62;;;0.55;100.0
63691;BME280;49837;57.280;27.070;2023-02-13T00:32:14;100671.61;;;0.55;100.0
63691;BME280;49837;57.280;27.070;2023-02-13T00:33:14;100674.99;;;0.57;100.0
63691;BME280;49837;57.280;27.070;2023-02-13T00:34:15;100669.61;;;0.59;100.0
63691;BME280;49837;57.280;27.070;2023-02-13T00:35:15;100669.23;;;0.59;100.0
63691;BME280;49837;57.280;27.070;2023-02-13T00:36:18;100665.14;;;0.57;100.0
63691;BME280;49837;57.280;27.070;2023-02-13T00:37:16;100672.58;;;0.54;100.0
63691;BME280;49837;57.280;27.070;2023-02-13T00:38:16;100669.0;;;0.56;100.0
63691;BME280;49837;57.280;27.070;2023-02-13T00:39:16;100672.6;;;0.61;100.0
63691;BME280;49837;57.280;27.070;2023-02-13T00:40:17;100670.91;;;0.62;100.0
63691;BME280;49837;57.280;27.070;2023-02-13T00:41:17;100672.77;;;0.61;100.0
63691;BME280;49837;57.280;27.070;2023-02-13T00:42:18;100676.52;;;0.63;100.0
63691;BME280;49837;57.280;27.070;2023-02-13T00:43:18;100670.68;;;0.63;100.0
63691;BME280;49837;57.280;27.070;2023-02-13T00:44:18;100667.12;;;0.62;100.0
63691;BME280;49837;57.280;27.070;2023-02-13T00:45:18;100664.7;;;0.6;100.0
63691;BME280;49837;57.280;27.070;2023-02-13T00:46:19;100667.28;;;0.61;100.0
63691;BME280;49837;57.280;27.070;2023-02-13T00:47:19;100659.3;;;0.61;100.0
63691;BME280;49837;57.280;27.070;2023-02-13T00:48:20;100657.09;;;0.61;100.0
63691;BME280;49837;57.280;27.070;2023-02-13T00:49:20;100656.11;;;0.57;100.0
63691;BME280;49837;57.280;27.070;2023-02-13T00:50:20;100659.98;;;0.58;100.0
63691;BME280;49837;57.280;27.070;2023-02-13T00:51:21;100660.28;;;0.6;100.0
63691;BME280;49837;57.280;27.070;2023-02-13T00:52:21;100659.09;;;0.53;100.0
63691;BME280;49837;57.280;27.070;2023-02-13T00:53:23;100666.14;;;0.58;100.0
63691;BME280;49837;57.280;27.070;2023-02-13T00:54:22;100660.44;;;0.6;100.0
63691;BME280;49837;57.280;27.070;2023-02-13T00:55:22;100662.53;;;0.58;100.0
63691;BME280;49837;57.280;27.070;2023-02-13T00:56:22;100650.7;;;0.57;100.0
63691;BME280;49837;57.280;27.070;2023-02-13T00:57:23;100646.39;;;0.54;100.0
63691;BME280;49837;57.280;27.070;2023-02-13T00:58:23;100649.94;;;0.56;100.0
63691;BME280;49837;57.280;27.070;2023-02-13T00:59:23;100643.2;;;0.56;100.0
63691;BME280;49837;57.280;27.070;2023-02-13T01:00:24;100638.67;;;0.58;100.0
63691;BME280;49837;57.280;27.070;2023-02-13T01:01:24;100645.78;;;0.58;100.0
63691;BME280;49837;57.280;27.070;2023-02-13T01:02:25;100644.28;;;0.57;100.0
63691;BME280;49837;57.280;27.070;2023-02-13T01:03:25;100642.6;;;0.59;100.0
63691;BME280;49837;57.280;27.070;2023-02-13T01:04:25;100644.66;;;0.59;100.0
63691;BME280;49837;57.280;27.070;2023-02-13T01:05:26;100646.72;;;0.58;100.0
63691;BME280;49837;57.280;27.070;2023-02-13T01:06:26;100648.59;;;0.58;100.0
63691;BME280;49837;57.280;27.070;2023-02-13T01:07:26;100638.3;;;0.57;100.0
63691;BME280;49837;57.280;27.070;2023-02-13T01:08:27;100638.63;;;0.56;100.0
63691;BME280;49837;57.280;27.070;2023-02-13T01:09:27;100637.45;;;0.6;100.0
63691;BME280;49837;57.280;27.070;2023-02-13T01:10:27;100625.09;;;0.58;100.0
63691;BME280;49837;57.280;27.070;2023-02-13T01:11:31;100624.53;;;0.57;100.0
63691;BME280;49837;57.280;27.070;2023-02-13T01:12:28;100615.81;;;0.56;100.0
63691;BME280;49837;57.280;27.070;2023-02-13T01:13:29;100621.28;;;0.5;100.0
63691;BME280;49837;57.280;27.070;2023-02-13T01:14:29;100615.19;;;0.45;100.0
63691;BME280;49837;57.280;27.070;2023-02-13T01:15:29;100623.31;;;0.49;100.0
63691;BME280;49837;57.280;27.070;2023-02-13T01:16:30;100635.16;;;0.51;100.0
63691;BME280;49837;57.280;27.070;2023-02-13T01:17:30;100633.22;;;0.53;100.0
63691;BME280;49837;57.280;27.070;2023-02-13T01:18:31;100633.16;;;0.53;100.0
63691;BME280;49837;57.280;27.070;2023-02-13T01:19:31;100630.03;;;0.53;100.0
63691;BME280;49837;57.280;27.070;2023-02-13T01:20:31;100625.88;;;0.54;100.0
63691;BME280;49837;57.280;27.070;2023-02-13T01:21:32;100625.34;;;0.52;100.0
63691;BME280;49837;57.280;27.070;2023-02-13T01:22:32;100623.25;;;0.51;100.0
63691;BME280;49837;57.280;27.070;2023-02-13T01:23:35;100628.45;;;0.49;100.0
63691;BME280;49837;57.280;27.070;2023-02-13T01:24:35;100629.88;;;0.49;100.0
63691;BME280;49837;57.280;27.070;2023-02-13T01:25:33;100626.22;;;0.51;100.0
63691;BME280;49837;57.280;27.070;2023-02-13T01:26:33;100629.0;;;0.52;100.0
63691;BME280;49837;57.280;27.070;2023-02-13T01:27:34;100625.84;;;0.5;100.0
63691;BME280;49837;57.280;27.070;2023-02-13T01:28:34;100616.15;;;0.48;100.0
63691;BME280;49837;57.280;27.070;2023-02-13T01:29:34;100620.78;;;0.51;100.0
63691;BME280;49837;57.280;27.070;2023-02-13T01:30:35;100614.19;;;0.5;100.0
63691;BME280;49837;57.280;27.070;2023-02-13T01:31:35;100610.5;;;0.54;100.0
63691;BME280;49837;57.280;27.070;2023-02-13T01:32:36;100609.29;;;0.54;100.0
63691;BME280;49837;57.280;27.070;2023-02-13T01:33:36;100615.95;;;0.56;100.0
63691;BME280;49837;57.280;27.070;2023-02-13T01:34:36;100615.89;;;0.47;100.0
63691;BME280;49837;57.280;27.070;2023-02-13T01:35:39;100616.3;;;0.47;100.0
63691;BME280;49837;57.280;27.070;2023-02-13T01:36:37;100612.93;;;0.47;100.0
63691;BME280;49837;57.280;27.070;2023-02-13T01:37:37;100615.87;;;0.46;100.0
63691;BME280;49837;57.280;27.070;2023-02-13T01:38:37;100610.31;;;0.48;100.0
63691;BME280;49837;57.280;27.070;2023-02-13T01:39:38;100605.06;;;0.48;100.0
63691;BME280;49837;57.280;27.070;2023-02-13T01:40:44;100612.28;;;0.53;100.0
63691;BME280;49837;57.280;27.070;2023-02-13T01:41:42;100607.89;;;0.5;100.0
63691;BME280;49837;57.280;27.070;2023-02-13T01:42:42;100610.89;;;0.49;100.0
63691;BME280;49837;57.280;27.070;2023-02-13T01:43:57;100604.28;;;0.54;100.0
63691;BME280;49837;57.280;27.070;2023-02-13T01:44:50;100610.75;;;0.49;100.0
63691;BME280;49837;57.280;27.070;2023-02-13T01:45:52;100604.16;;;0.52;100.0
63691;BME280;49837;57.280;27.070;2023-02-13T01:46:51;100610.39;;;0.53;100.0
63691;BME280;49837;57.280;27.070;2023-02-13T01:48:00;100617.34;;;0.52;100.0
63691;BME280;49837;57.280;27.070;2023-02-13T01:48:53;100618.81;;;0.51;100.0
63691;BME280;49837;57.280;27.070;2023-02-13T01:50:02;100608.28;;;0.54;100.0
63691;BME280;49837;57.280;27.070;2023-02-13T01:51:07;100607.3;;;0.49;100.0
63691;BME280;49837;57.280;27.070;2023-02-13T01:52:02;100609.21;;;0.5;100.0
63691;BME280;49837;57.280;27.070;2023-02-13T01:55:11;100600.91;;;0.55;100.0
63691;BME280;49837;57.280;27.070;2023-02-13T01:58:18;100602.6;;;0.52;100.0
63691;BME280;49837;57.280;27.070;2023-02-13T02:00:22;100594.39;;;0.53;100.0
63691;BME280;49837;57.280;27.070;2023-02-13T02:01:23;100592.37;;;0.53;100.0
63691;BME280;49837;57.280;27.070;2023-02-13T02:02:22;100594.16;;;0.54;100.0
63691;BME280;49837;57.280;27.070;2023-02-13T02:03:38;100585.22;;;0.54;100.0
63691;BME280;49837;57.280;27.070;2023-02-13T02:04:32;100587.3;;;0.56;100.0
63691;BME280;49837;57.280;27.070;2023-02-13T02:05:31;100582.0;;;0.52;100.0
63691;BME280;49837;57.280;27.070;2023-02-13T02:06:33;100582.41;;;0.53;100.0
63691;BME280;49837;57.280;27.070;2023-02-13T02:07:32;100582.38;;;0.56;100.0
63691;BME280;49837;57.280;27.070;2023-02-13T02:08:32;100583.33;;;0.57;100.0
63691;BME280;49837;57.280;27.070;2023-02-13T02:09:35;100582.7;;;0.59;100.0
63691;BME280;49837;57.280;27.070;2023-02-13T02:10:33;100585.28;;;0.53;100.0
63691;BME280;49837;57.280;27.070;2023-02-13T02:11:41;100589.2;;;0.51;100.0
63691;BME280;49837;57.280;27.070;2023-02-13T02:12:46;100589.52;;;0.56;100.0
63691;BME280;49837;57.280;27.070;2023-02-13T02:13:39;100587.67;;;0.58;100.0
63691;BME280;49837;57.280;27.070;2023-02-13T02:14:40;100585.67;;;0.51;100.0
63691;BME280;49837;57.280;27.070;2023-02-13T02:15:40;100588.78;;;0.52;100.0
63691;BME280;49837;57.280;27.070;2023-02-13T02:16:40;100592.93;;;0.54;100.0
63691;BME280;49837;57.280;27.070;2023-02-13T02:17:40;100586.84;;;0.53;100.0
63691;BME280;49837;57.280;27.070;2023-02-13T02:18:40;100583.97;;;0.53;100.0
63691;BME280;49837;57.280;27.070;2023-02-13T02:19:48;100581.5;;;0.57;100.0
63691;BME280;49837;57.280;27.070;2023-02-13T02:45:55;100562.86;;;0.61;100.0
63691;BME280;49837;57.280;27.070;2023-02-13T02:51:25;100557.26;;;0.56;100.0
63691;BME280;49837;57.280;27.070;2023-02-13T02:52:16;100556.58;;;0.5;100.0
63691;BME280;49837;57.280;27.070;2023-02-13T02:56:24;100565.3;;;0.56;100.0
63691;BME280;49837;57.280;27.070;2023-02-13T02:57:27;100562.34;;;0.56;100.0
63691;BME280;49837;57.280;27.070;2023-02-13T02:59:27;100565.44;;;0.63;100.0
63691;BME280;49837;57.280;27.070;2023-02-13T03:00:28;100566.0;;;0.58;100.0
63691;BME280;49837;57.280;27.070;2023-02-13T03:01:29;100563.56;;;0.59;100.0
63691;BME280;49837;57.280;27.070;2023-02-13T03:02:29;100568.47;;;0.58;100.0
63691;BME280;49837;57.280;27.070;2023-02-13T03:03:30;100569.8;;;0.55;100.0
63691;BME280;49837;57.280;27.070;2023-02-13T03:04:35;100579.22;;;0.58;100.0
63691;BME280;49837;57.280;27.070;2023-02-13T03:05:38;100570.98;;;0.61;100.0
63691;BME280;49837;57.280;27.070;2023-02-13T03:07:43;100569.64;;;0.6;100.0
63691;BME280;49837;57.280;27.070;2023-02-13T03:08:45;100568.8;;;0.63;100.0
63691;BME280;49837;57.280;27.070;2023-02-13T03:10:48;100564.99;;;0.66;100.0
63691;BME280;49837;57.280;27.070;2023-02-13T03:11:50;100568.92;;;0.65;100.0
63691;BME280;49837;57.280;27.070;2023-02-13T03:12:54;100562.12;;;0.62;100.0
63691;BME280;49837;57.280;27.070;2023-02-13T03:13:54;100565.39;;;0.65;100.0
63691;BME280;49837;57.280;27.070;2023-02-13T03:14:55;100567.84;;;0.64;100.0
63691;BME280;49837;57.280;27.070;2023-02-13T03:15:58;100562.47;;;0.62;100.0
63691;BME280;49837;57.280;27.070;2023-02-13T03:16:57;100561.58;;;0.63;100.0
63691;BME280;49837;57.280;27.070;2023-02-13T03:17:56;100563.97;;;0.58;100.0
63691;BME280;49837;57.280;27.070;2023-02-13T03:18:57;100566.84;;;0.59;100.0
63691;BME280;49837;57.280;27.070;2023-02-13T03:22:07;100569.97;;;0.64;100.0
63691;BME280;49837;57.280;27.070;2023-02-13T03:23:14;100569.73;;;0.64;100.0
63691;BME280;49837;57.280;27.070;2023-02-13T03:34:33;100587.34;;;0.58;100.0
63691;BME280;49837;57.280;27.070;2023-02-13T03:37:39;100590.39;;;0.62;100.0
63691;BME280;49837;57.280;27.070;2023-02-13T03:40:49;100590.59;;;0.65;100.0
63691;BME280;49837;57.280;27.070;2023-02-13T03:46:01;100580.59;;;0.61;100.0
63691;BME280;49837;57.280;27.070;2023-02-13T03:47:02;100590.77;;;0.61;100.0
63691;BME280;49837;57.280;27.070;2023-02-13T03:48:03;100585.86;;;0.62;100.0
63691;BME280;49837;57.280;27.070;2023-02-13T03:49:04;100583.52;;;0.64;100.0
63691;BME280;49837;57.280;27.070;2023-02-13T03:50:04;100578.66;;;0.63;100.0
63691;BME280;49837;57.280;27.070;2023-02-13T03:51:05;100577.21;;;0.65;100.0
63691;BME280;49837;57.280;27.070;2023-02-13T03:55:16;100574.81;;;0.7;100.0
63691;BME280;49837;57.280;27.070;2023-02-13T03:56:15;100567.23;;;0.68;100.0
63691;BME280;49837;57.280;27.070;2023-02-13T03:57:17;100565.48;;;0.65;100.0
63691;BME280;49837;57.280;27.070;2023-02-13T03:59:27;100569.27;;;0.66;100.0
63691;BME280;49837;57.280;27.070;2023-02-13T04:00:21;100573.62;;;0.66;100.0
63691;BME280;49837;57.280;27.070;2023-02-13T04:01:26;100575.5;;;0.66;100.0
63691;BME280;49837;57.280;27.070;2023-02-13T04:02:27;100570.23;;;0.65;100.0
63691;BME280;49837;57.280;27.070;2023-02-13T04:05:40;100582.45;;;0.64;100.0
63691;BME280;49837;57.280;27.070;2023-02-13T04:07:44;100586.55;;;0.6;100.0
63691;BME280;49837;57.280;27.070;2023-02-13T04:08:44;100583.08;;;0.58;100.0
63691;BME280;49837;57.280;27.070;2023-02-13T04:09:45;100584.3;;;0.62;100.0
63691;BME280;49837;57.280;27.070;2023-02-13T04:14:00;100580.78;;;0.67;100.0
63691;BME280;49837;57.280;27.070;2023-02-13T04:17:15;100573.91;;;0.64;100.0
63691;BME280;49837;57.280;27.070;2023-02-13T04:18:18;100571.94;;;0.64;100.0
63691;BME280;49837;57.280;27.070;2023-02-13T04:19:12;100572.59;;;0.6;100.0
63691;BME280;49837;57.280;27.070;2023-02-13T04:20:13;100577.45;;;0.59;100.0
63691;BME280;49837;57.280;27.070;2023-02-13T04:21:13;100576.56;;;0.61;100.0
63691;BME280;49837;57.280;27.070;2023-02-13T04:22:13;100581.53;;;0.63;100.0
63691;BME280;49837;57.280;27.070;2023-02-13T04:23:14;100578.77;;;0.65;100.0
63691;BME280;49837;57.280;27.070;2023-02-13T04:24:14;100582.55;;;0.65;100.0
63691;BME280;49837;57.280;27.070;2023-02-13T04:25:16;100581.62;;;0.64;100.0
63691;BME280;49837;57.280;27.070;2023-02-13T04:26:20;100587.66;;;0.62;100.0
63691;BME280;49837;57.280;27.070;2023-02-13T04:27:19;100594.97;;;0.62;100.0
63691;BME280;49837;57.280;27.070;2023-02-13T04:28:19;100590.64;;;0.63;100.0
63691;BME280;49837;57.280;27.070;2023-02-13T04:29:23;100593.59;;;0.63;100.0
63691;BME280;49837;57.280;27.070;2023-02-13T04:30:21;100594.45;;;0.65;100.0
63691;BME280;49837;57.280;27.070;2023-02-13T04:31:22;100596.27;;;0.66;100.0
63691;BME280;49837;57.280;27.070;2023-02-13T04:32:22;100586.53;;;0.67;100.0
63691;BME280;49837;57.280;27.070;2023-02-13T04:33:22;100585.73;;;0.68;100.0
63691;BME280;49837;57.280;27.070;2023-02-13T04:34:23;100590.66;;;0.64;100.0
63691;BME280;49837;57.280;27.070;2023-02-13T04:35:23;100587.2;;;0.63;100.0
63691;BME280;49837;57.280;27.070;2023-02-13T04:36:23;100585.92;;;0.65;100.0
63691;BME280;49837;57.280;27.070;2023-02-13T04:37:24;100587.55;;;0.65;100.0
63691;BME280;49837;57.280;27.070;2023-02-13T04:38:24;100593.19;;;0.69;100.0
63691;BME280;49837;57.280;27.070;2023-02-13T04:39:25;100588.17;;;0.67;100.0
63691;BME280;49837;57.280;27.070;2023-02-13T04:40:25;100581.66;;;0.67;100.0
63691;BME280;49837;57.280;27.070;2023-02-13T04:41:25;100582.11;;;0.63;100.0
63691;BME280;49837;57.280;27.070;2023-02-13T04:42:25;100581.17;;;0.62;100.0
63691;BME280;49837;57.280;27.070;2023-02-13T04:43:26;100583.58;;;0.63;100.0
63691;BME280;49837;57.280;27.070;2023-02-13T04:44:26;100574.86;;;0.62;100.0
63691;BME280;49837;57.280;27.070;2023-02-13T04:45:26;100577.7;;;0.65;100.0
63691;BME280;49837;57.280;27.070;2023-02-13T04:46:27;100580.91;;;0.65;100.0
63691;BME280;49837;57.280;27.070;2023-02-13T04:47:27;100583.23;;;0.62;100.0
63691;BME280;49837;57.280;27.070;2023-02-13T04:48:28;100583.89;;;0.62;100.0
63691;BME280;49837;57.280;27.070;2023-02-13T04:49:28;100587.31;;;0.61;100.0
63691;BME280;49837;57.280;27.070;2023-02-13T04:50:28;100590.53;;;0.62;100.0
63691;BME280;49837;57.280;27.070;2023-02-13T04:51:29;100593.42;;;0.67;100.0
63691;BME280;49837;57.280;27.070;2023-02-13T04:52:29;100591.12;;;0.68;100.0
63691;BME280;49837;57.280;27.070;2023-02-13T04:53:30;100597.66;;;0.7;100.0
63691;BME280;49837;57.280;27.070;2023-02-13T04:54:30;100597.56;;;0.69;100.0
63691;BME280;49837;57.280;27.070;2023-02-13T04:55:30;100600.53;;;0.65;100.0
63691;BME280;49837;57.280;27.070;2023-02-13T04:56:30;100593.84;;;0.68;100.0
63691;BME280;49837;57.280;27.070;2023-02-13T04:57:31;100593.33;;;0.68;100.0
63691;BME280;49837;57.280;27.070;2023-02-13T04:58:31;100589.23;;;0.68;100.0
63691;BME280;49837;57.280;27.070;2023-02-13T04:59:31;100588.77;;;0.7;100.0
63691;BME280;49837;57.280;27.070;2023-02-13T05:00:32;100586.89;;;0.7;100.0
63691;BME280;49837;57.280;27.070;2023-02-13T05:01:32;100589.25;;;0.69;100.0
63691;BME280;49837;57.280;27.070;2023-02-13T05:02:32;100587.91;;;0.66;100.0
63691;BME280;49837;57.280;27.070;2023-02-13T05:03:33;100588.66;;;0.62;100.0
63691;BME280;49837;57.280;27.070;2023-02-13T05:04:33;100589.02;;;0.6;100.0
63691;BME280;49837;57.280;27.070;2023-02-13T05:05:34;100590.61;;;0.53;100.0
63691;BME280;49837;57.280;27.070;2023-02-13T05:06:34;100588.76;;;0.59;100.0
63691;BME280;49837;57.280;27.070;2023-02-13T05:07:34;100593.52;;;0.58;100.0
63691;BME280;49837;57.280;27.070;2023-02-13T05:08:35;100592.39;;;0.59;100.0
63691;BME280;49837;57.280;27.070;2023-02-13T05:09:35;100587.23;;;0.61;100.0
63691;BME280;49837;57.280;27.070;2023-02-13T05:10:36;100593.05;;;0.59;100.0
63691;BME280;49837;57.280;27.070;2023-02-13T05:11:36;100592.96;;;0.6;100.0
63691;BME280;49837;57.280;27.070;2023-02-13T05:12:36;100591.09;;;0.61;100.0
63691;BME280;49837;57.280;27.070;2023-02-13T05:13:36;100590.54;;;0.62;100.0
63691;BME280;49837;57.280;27.070;2023-02-13T05:14:37;100595.97;;;0.57;100.0
63691;BME280;49837;57.280;27.070;2023-02-13T05:15:37;100590.56;;;0.59;100.0
63691;BME280;49837;57.280;27.070;2023-02-13T05:16:40;100587.53;;;0.59;100.0
63691;BME280;49837;57.280;27.070;2023-02-13T05:17:42;100588.26;;;0.63;100.0
63691;BME280;49837;57.280;27.070;2023-02-13T05:18:41;100591.05;;;0.63;100.0
63691;BME280;49837;57.280;27.070;2023-02-13T05:19:41;100594.7;;;0.61;100.0
63691;BME280;49837;57.280;27.070;2023-02-13T05:20:41;100591.06;;;0.58;100.0
63691;BME280;49837;57.280;27.070;2023-02-13T05:21:42;100587.88;;;0.64;100.0
63691;BME280;49837;57.280;27.070;2023-02-13T05:22:50;100588.59;;;0.63;100.0
63691;BME280;49837;57.280;27.070;2023-02-13T05:23:43;100584.08;;;0.59;100.0
63691;BME280;49837;57.280;27.070;2023-02-13T05:24:43;100581.9;;;0.61;100.0
63691;BME280;49837;57.280;27.070;2023-02-13T05:25:44;100577.11;;;0.64;100.0
63691;BME280;49837;57.280;27.070;2023-02-13T05:26:44;100580.47;;;0.68;100.0
63691;BME280;49837;57.280;27.070;2023-02-13T05:27:44;100573.86;;;0.66;100.0
63691;BME280;49837;57.280;27.070;2023-02-13T05:28:45;100573.52;;;0.65;100.0
63691;BME280;49837;57.280;27.070;2023-02-13T05:29:45;100574.41;;;0.7;100.0
63691;BME280;49837;57.280;27.070;2023-02-13T05:30:45;100581.19;;;0.67;100.0
63691;BME280;49837;57.280;27.070;2023-02-13T05:31:50;100576.98;;;0.66;100.0
63691;BME280;49837;57.280;27.070;2023-02-13T05:32:49;100575.44;;;0.62;100.0
63691;BME280;49837;57.280;27.070;2023-02-13T05:33:49;100583.38;;;0.61;100.0
63691;BME280;49837;57.280;27.070;2023-02-13T05:34:49;100576.45;;;0.64;100.0
63691;BME280;49837;57.280;27.070;2023-02-13T05:35:50;100579.06;;;0.63;100.0
63691;BME280;49837;57.280;27.070;2023-02-13T05:36:50;100583.97;;;0.62;100.0
63691;BME280;49837;57.280;27.070;2023-02-13T05:37:50;100582.09;;;0.62;100.0
63691;BME280;49837;57.280;27.070;2023-02-13T05:38:51;100582.33;;;0.62;100.0
63691;BME280;49837;57.280;27.070;2023-02-13T05:39:51;100582.41;;;0.58;100.0
63691;BME280;49837;57.280;27.070;2023-02-13T05:40:52;100577.12;;;0.6;100.0
63691;BME280;49837;57.280;27.070;2023-02-13T05:41:52;100573.0;;;0.64;100.0
63691;BME280;49837;57.280;27.070;2023-02-13T05:42:53;100572.56;;;0.68;100.0
63691;BME280;49837;57.280;27.070;2023-02-13T05:43:53;100570.02;;;0.67;100.0
63691;BME280;49837;57.280;27.070;2023-02-13T05:44:54;100572.64;;;0.62;100.0
63691;BME280;49837;57.280;27.070;2023-02-13T05:46:07;100577.33;;;0.68;100.0
63691;BME280;49837;57.280;27.070;2023-02-13T05:46:55;100574.81;;;0.64;100.0
63691;BME280;49837;57.280;27.070;2023-02-13T05:47:55;100577.17;;;0.67;100.0
63691;BME280;49837;57.280;27.070;2023-02-13T05:48:56;100573.55;;;0.67;100.0
63691;BME280;49837;57.280;27.070;2023-02-13T05:49:56;100573.5;;;0.7;100.0
63691;BME280;49837;57.280;27.070;2023-02-13T05:50:57;100571.64;;;0.7;100.0
63691;BME280;49837;57.280;27.070;2023-02-13T05:51:57;100567.38;;;0.62;100.0
63691;BME280;49837;57.280;27.070;2023-02-13T05:52:57;100563.16;;;0.6;100.0
63691;BME280;49837;57.280;27.070;2023-02-13T05:53:58;100564.55;;;0.64;100.0
63691;BME280;49837;57.280;27.070;2023-02-13T05:54:59;100569.12;;;0.62;100.0
63691;BME280;49837;57.280;27.070;2023-02-13T05:55:58;100564.4;;;0.6;100.0
63691;BME280;49837;57.280;27.070;2023-02-13T05:56:59;100564.72;;;0.64;100.0
63691;BME280;49837;57.280;27.070;2023-02-13T05:57:59;100559.36;;;0.63;100.0
63691;BME280;49837;57.280;27.070;2023-02-13T05:58:59;100560.47;;;0.65;100.0
63691;BME280;49837;57.280;27.070;2023-02-13T06:00:00;100556.7;;;0.67;100.0
63691;BME280;49837;57.280;27.070;2023-02-13T06:01:00;100553.03;;;0.68;100.0
63691;BME280;49837;57.280;27.070;2023-02-13T06:02:00;100557.59;;;0.71;100.0
63691;BME280;49837;57.280;27.070;2023-02-13T06:03:01;100558.72;;;0.74;99.9
63691;BME280;49837;57.280;27.070;2023-02-13T06:04:01;100557.98;;;0.75;99.78
63691;BME280;49837;57.280;27.070;2023-02-13T06:05:01;100552.28;;;0.77;99.67
63691;BME280;49837;57.280;27.070;2023-02-13T06:06:02;100552.53;;;0.71;99.62
63691;BME280;49837;57.280;27.070;2023-02-13T06:07:02;100550.06;;;0.77;99.64
63691;BME280;49837;57.280;27.070;2023-02-13T06:08:03;100550.88;;;0.75;99.52
63691;BME280;49837;57.280;27.070;2023-02-13T06:09:03;100552.78;;;0.73;99.49
63691;BME280;49837;57.280;27.070;2023-02-13T06:10:04;100549.27;;;0.69;99.53
63691;BME280;49837;57.280;27.070;2023-02-13T06:11:04;100551.11;;;0.71;99.65
63691;BME280;49837;57.280;27.070;2023-02-13T06:12:04;100560.02;;;0.72;99.68
63691;BME280;49837;57.280;27.070;2023-02-13T06:13:04;100566.0;;;0.76;99.6
63691;BME280;49837;57.280;27.070;2023-02-13T06:14:05;100564.52;;;0.71;99.57
63691;BME280;49837;57.280;27.070;2023-02-13T06:15:06;100564.7;;;0.68;99.65
63691;BME280;49837;57.280;27.070;2023-02-13T06:16:12;100554.67;;;0.72;99.67
63691;BME280;49837;57.280;27.070;2023-02-13T06:17:10;100559.65;;;0.76;99.6
63691;BME280;49837;57.280;27.070;2023-02-13T06:18:10;100560.08;;;0.77;99.48
63691;BME280;49837;57.280;27.070;2023-02-13T06:19:10;100560.33;;;0.77;99.41
63691;BME280;49837;57.280;27.070;2023-02-13T06:20:11;100559.36;;;0.78;99.38
63691;BME280;49837;57.280;27.070;2023-02-13T06:21:11;100562.53;;;0.76;99.3
63691;BME280;49837;57.280;27.070;2023-02-13T06:22:11;100560.29;;;0.75;99.3
63691;BME280;49837;57.280;27.070;2023-02-13T06:23:12;100556.97;;;0.78;99.32
63691;BME280;49837;57.280;27.070;2023-02-13T06:24:12;100561.98;;;0.78;99.28
63691;BME280;49837;57.280;27.070;2023-02-13T06:25:12;100564.92;;;0.77;99.21
63691;BME280;49837;57.280;27.070;2023-02-13T06:26:13;100570.42;;;0.77;99.18
63691;BME280;49837;57.280;27.070;2023-02-13T06:27:13;100570.77;;;0.78;99.22
63691;BME280;49837;57.280;27.070;2023-02-13T06:28:13;100574.86;;;0.77;99.16
63691;BME280;49837;57.280;27.070;2023-02-13T06:29:14;100575.34;;;0.75;99.18
63691;BME280;49837;57.280;27.070;2023-02-13T06:30:15;100580.17;;;0.8;99.2
63691;BME280;49837;57.280;27.070;2023-02-13T06:31:14;100586.0;;;0.86;99.15
63691;BME280;49837;57.280;27.070;2023-02-13T06:32:15;100578.55;;;0.86;99.0
63691;BME280;49837;57.280;27.070;2023-02-13T06:33:15;100581.91;;;0.81;98.96